sensor_id;sensor_type;location;lat;lon;timestamp;temperature;humidity
3980;DHT22;2004;52.452;13.120;2022-09-28T00:04:07;9.10;99.90
3980;DHT22;2004;52.452;13.120;2022-09-28T00:11:58;9.20;99.90
3980;DHT22;2004;52.452;13.120;2022-09-28T00:19:48;9.20;99.90
3980;DHT22;2004;52.452;13.120;2022-09-28T00:27:39;9.20;99.90
3980;DHT22;2004;52.452;13.120;2022-09-28T00:35:29;9.20;99.90
3980;DHT22;2004;52.452;13.120;2022-09-28T00:43:21;9.20;99.90
3980;DHT22;2004;52.452;13.120;2022-09-28T00:51:12;9.20;99.90
3980;DHT22;2004;52.452;13.120;2022-09-28T00:59:03;9.30;99.90
3980;DHT22;2004;52.452;13.120;2022-09-28T01:06:55;9.30;99.90
3980;DHT22;2004;52.452;13.120;2022-09-28T01:14:47;9.20;99.90
3980;DHT22;2004;52.452;13.120;2022-09-28T01:38:53;9.20;99.90
3980;DHT22;2004;52.452;13.120;2022-09-28T01:46:47;9.20;99.90
3980;DHT22;2004;52.452;13.120;2022-09-28T01:55:38;9.20;99.90
3980;DHT22;2004;52.452;13.120;2022-09-28T02:03:31;9.20;99.90
3980;DHT22;2004;52.452;13.120;2022-09-28T02:11:24;9.20;99.90
3980;DHT22;2004;52.452;13.120;2022-09-28T02:19:15;9.20;99.90
3980;DHT22;2004;52.452;13.120;2022-09-28T02:27:16;9.20;99.90
3980;DHT22;2004;52.452;13.120;2022-09-28T02:35:11;9.20;99.90
3980;DHT22;2004;52.452;13.120;2022-09-28T02:51:08;9.10;99.90
3980;DHT22;2004;52.452;13.120;2022-09-28T03:07:59;9.00;99.90
3980;DHT22;2004;52.452;13.120;2022-09-28T03:15:50;9.00;99.90
3980;DHT22;2004;52.452;13.120;2022-09-28T03:23:41;8.90;99.90
3980;DHT22;2004;52.452;13.120;2022-09-28T03:31:32;9.00;99.90
3980;DHT22;2004;52.452;13.120;2022-09-28T03:39:22;9.00;99.90
3980;DHT22;2004;52.452;13.120;2022-09-28T03:47:13;9.00;99.90
3980;DHT22;2004;52.452;13.120;2022-09-28T03:55:05;8.90;99.90
3980;DHT22;2004;52.452;13.120;2022-09-28T04:02:55;8.90;99.90
3980;DHT22;2004;52.452;13.120;2022-09-28T04:10:46;8.80;99.90
3980;DHT22;2004;52.452;13.120;2022-09-28T04:18:36;8.70;99.90
3980;DHT22;2004;52.452;13.120;2022-09-28T04:26:29;8.60;99.90
3980;DHT22;2004;52.452;13.120;2022-09-28T04:34:21;8.50;99.90
3980;DHT22;2004;52.452;13.120;2022-09-28T04:42:12;8.40;99.90
3980;DHT22;2004;52.452;13.120;2022-09-28T04:50:02;8.40;99.90
3980;DHT22;2004;52.452;13.120;2022-09-28T04:57:53;8.40;99.90
3980;DHT22;2004;52.452;13.120;2022-09-28T05:05:44;8.40;99.90
3980;DHT22;2004;52.452;13.120;2022-09-28T05:13:42;8.50;99.90
3980;DHT22;2004;52.452;13.120;2022-09-28T05:21:34;8.50;99.90
3980;DHT22;2004;52.452;13.120;2022-09-28T05:29:24;8.50;99.90
3980;DHT22;2004;52.452;13.120;2022-09-28T05:37:15;8.50;99.90
3980;DHT22;2004;52.452;13.120;2022-09-28T05:45:06;8.50;99.90
3980;DHT22;2004;52.452;13.120;2022-09-28T05:53:03;8.60;99.90
3980;DHT22;2004;52.452;13.120;2022-09-28T06:00:55;8.60;99.90
3980;DHT22;2004;52.452;13.120;2022-09-28T06:08:45;8.70;99.90
3980;DHT22;2004;52.452;13.120;2022-09-28T06:16:37;8.80;99.90
3980;DHT22;2004;52.452;13.120;2022-09-28T06:24:28;8.80;99.90
3980;DHT22;2004;52.452;13.120;2022-09-28T06:32:18;8.80;99.90
3980;DHT22;2004;52.452;13.120;2022-09-28T06:40:09;8.80;99.90
3980;DHT22;2004;52.452;13.120;2022-09-28T06:48:00;8.90;99.90
3980;DHT22;2004;52.452;13.120;2022-09-28T06:55:51;8.90;99.90
3980;DHT22;2004;52.452;13.120;2022-09-28T07:03:41;8.90;99.90
3980;DHT22;2004;52.452;13.120;2022-09-28T07:11:38;9.00;99.90
3980;DHT22;2004;52.452;13.120;2022-09-28T07:19:29;9.00;99.90
3980;DHT22;2004;52.452;13.120;2022-09-28T07:27:19;9.10;99.90
3980;DHT22;2004;52.452;13.120;2022-09-28T07:35:09;9.20;99.90
3980;DHT22;2004;52.452;13.120;2022-09-28T07:43:05;9.30;99.90
3980;DHT22;2004;52.452;13.120;2022-09-28T07:50:56;9.30;99.90
3980;DHT22;2004;52.452;13.120;2022-09-28T07:58:49;9.50;99.90
3980;DHT22;2004;52.452;13.120;2022-09-28T08:06:39;9.60;99.90
3980;DHT22;2004;52.452;13.120;2022-09-28T08:14:31;9.70;99.90
3980;DHT22;2004;52.452;13.120;2022-09-28T08:22:23;9.80;99.90
3980;DHT22;2004;52.452;13.120;2022-09-28T08:30:14;9.90;99.90
3980;DHT22;2004;52.452;13.120;2022-09-28T08:38:05;10.00;99.90
3980;DHT22;2004;52.452;13.120;2022-09-28T08:45:57;10.10;99.90
3980;DHT22;2004;52.452;13.120;2022-09-28T09:02:01;10.50;99.90
3980;DHT22;2004;52.452;13.120;2022-09-28T09:10:28;10.70;99.90
3980;DHT22;2004;52.452;13.120;2022-09-28T09:18:39;10.90;99.90
3980;DHT22;2004;52.452;13.120;2022-09-28T09:26:37;11.00;99.90
3980;DHT22;2004;52.452;13.120;2022-09-28T09:34:41;11.20;99.90
3980;DHT22;2004;52.452;13.120;2022-09-28T09:43:16;11.30;99.90
3980;DHT22;2004;52.452;13.120;2022-09-28T09:59:26;11.40;99.90
3980;DHT22;2004;52.452;13.120;2022-09-28T10:07:36;11.50;99.90
3980;DHT22;2004;52.452;13.120;2022-09-28T10:15:30;11.50;99.90
3980;DHT22;2004;52.452;13.120;2022-09-28T10:23:24;11.60;99.90
3980;DHT22;2004;52.452;13.120;2022-09-28T10:31:33;11.50;99.90
3980;DHT22;2004;52.452;13.120;2022-09-28T10:39:44;11.50;99.90
3980;DHT22;2004;52.452;13.120;2022-09-28T10:47:35;11.30;99.90
3980;DHT22;2004;52.452;13.120;2022-09-28T10:55:31;11.20;99.90
3980;DHT22;2004;52.452;13.120;2022-09-28T11:03:26;11.10;99.90
3980;DHT22;2004;52.452;13.120;2022-09-28T11:11:17;11.10;99.90
3980;DHT22;2004;52.452;13.120;2022-09-28T11:27:19;11.10;99.90
3980;DHT22;2004;52.452;13.120;2022-09-28T11:35:21;11.10;99.90
3980;DHT22;2004;52.452;13.120;2022-09-28T11:44:19;11.20;99.90
3980;DHT22;2004;52.452;13.120;2022-09-28T11:51:40;11.20;99.90
3980;DHT22;2004;52.452;13.120;2022-09-28T11:59:59;11.20;99.90
3980;DHT22;2004;52.452;13.120;2022-09-28T12:07:53;11.20;99.90
3980;DHT22;2004;52.452;13.120;2022-09-28T12:15:49;11.20;99.90
3980;DHT22;2004;52.452;13.120;2022-09-28T12:23:42;11.20;99.90
3980;DHT22;2004;52.452;13.120;2022-09-28T12:31:38;11.20;99.90
3980;DHT22;2004;52.452;13.120;2022-09-28T12:39:54;11.20;99.90
3980;DHT22;2004;52.452;13.120;2022-09-28T12:56:04;11.30;99.90
3980;DHT22;2004;52.452;13.120;2022-09-28T13:04:23;11.30;99.90
3980;DHT22;2004;52.452;13.120;2022-09-28T13:20:36;11.30;99.90
3980;DHT22;2004;52.452;13.120;2022-09-28T13:28:28;11.40;99.90
3980;DHT22;2004;52.452;13.120;2022-09-28T13:44:26;11.60;99.90
3980;DHT22;2004;52.452;13.120;2022-09-28T13:52:46;11.70;99.90
3980;DHT22;2004;52.452;13.120;2022-09-28T14:00:44;11.60;99.90
3980;DHT22;2004;52.452;13.120;2022-09-28T14:08:44;11.70;99.90
3980;DHT22;2004;52.452;13.120;2022-09-28T14:25:20;11.60;99.90
3980;DHT22;2004;52.452;13.120;2022-09-28T14:57:15;11.20;99.90
3980;DHT22;2004;52.452;13.120;2022-09-28T15:05:17;11.10;99.90
3980;DHT22;2004;52.452;13.120;2022-09-28T15:13:26;11.10;99.90
3980;DHT22;2004;52.452;13.120;2022-09-28T15:21:17;11.10;99.90
3980;DHT22;2004;52.452;13.120;2022-09-28T15:29:19;11.10;99.90
3980;DHT22;2004;52.452;13.120;2022-09-28T15:37:10;11.10;99.90
3980;DHT22;2004;52.452;13.120;2022-09-28T15:45:22;11.00;99.90
3980;DHT22;2004;52.452;13.120;2022-09-28T15:53:17;11.00;99.90
3980;DHT22;2004;52.452;13.120;2022-09-28T16:01:30;10.90;99.90
3980;DHT22;2004;52.452;13.120;2022-09-28T16:09:31;10.80;99.90
3980;DHT22;2004;52.452;13.120;2022-09-28T16:17:31;10.80;99.90
3980;DHT22;2004;52.452;13.120;2022-09-28T16:25:24;10.70;99.90
3980;DHT22;2004;52.452;13.120;2022-09-28T16:33:55;10.60;99.90
3980;DHT22;2004;52.452;13.120;2022-09-28T16:41:52;10.50;99.90
3980;DHT22;2004;52.452;13.120;2022-09-28T16:49:44;10.50;99.90
3980;DHT22;2004;52.452;13.120;2022-09-28T16:57:35;10.40;99.90
3980;DHT22;2004;52.452;13.120;2022-09-28T17:05:27;10.40;99.90
3980;DHT22;2004;52.452;13.120;2022-09-28T17:13:19;10.40;99.90
3980;DHT22;2004;52.452;13.120;2022-09-28T17:21:15;10.40;99.90
3980;DHT22;2004;52.452;13.120;2022-09-28T17:29:11;10.30;99.90
3980;DHT22;2004;52.452;13.120;2022-09-28T17:37:03;10.30;99.90
3980;DHT22;2004;52.452;13.120;2022-09-28T17:44:54;10.30;99.90
3980;DHT22;2004;52.452;13.120;2022-09-28T17:52:49;10.30;99.90
3980;DHT22;2004;52.452;13.120;2022-09-28T18:00:44;10.20;99.90
3980;DHT22;2004;52.452;13.120;2022-09-28T18:08:35;10.20;99.90
3980;DHT22;2004;52.452;13.120;2022-09-28T18:16:32;10.20;99.90
3980;DHT22;2004;52.452;13.120;2022-09-28T18:24:22;10.20;99.90
3980;DHT22;2004;52.452;13.120;2022-09-28T18:32:13;10.10;99.90
3980;DHT22;2004;52.452;13.120;2022-09-28T18:40:04;10.10;99.90
3980;DHT22;2004;52.452;13.120;2022-09-28T18:47:56;10.10;99.90
3980;DHT22;2004;52.452;13.120;2022-09-28T18:55:47;10.10;99.90
3980;DHT22;2004;52.452;13.120;2022-09-28T19:03:38;10.10;99.90
3980;DHT22;2004;52.452;13.120;2022-09-28T19:11:29;10.10;99.90
3980;DHT22;2004;52.452;13.120;2022-09-28T19:19:19;10.00;99.90
3980;DHT22;2004;52.452;13.120;2022-09-28T19:27:10;10.00;99.90
3980;DHT22;2004;52.452;13.120;2022-09-28T19:35:00;10.00;99.90
3980;DHT22;2004;52.452;13.120;2022-09-28T19:42:53;10.00;99.90
3980;DHT22;2004;52.452;13.120;2022-09-28T19:50:52;9.90;99.90
3980;DHT22;2004;52.452;13.120;2022-09-28T19:58:45;9.90;99.90
3980;DHT22;2004;52.452;13.120;2022-09-28T20:06:37;9.90;99.90
3980;DHT22;2004;52.452;13.120;2022-09-28T20:14:27;9.80;99.90
3980;DHT22;2004;52.452;13.120;2022-09-28T20:22:18;9.80;99.90
3980;DHT22;2004;52.452;13.120;2022-09-28T20:30:09;9.80;99.90
3980;DHT22;2004;52.452;13.120;2022-09-28T20:38:01;9.70;99.90
3980;DHT22;2004;52.452;13.120;2022-09-28T20:45:58;9.70;99.90
3980;DHT22;2004;52.452;13.120;2022-09-28T20:53:50;9.70;99.90
3980;DHT22;2004;52.452;13.120;2022-09-28T21:01:41;9.60;99.90
3980;DHT22;2004;52.452;13.120;2022-09-28T21:09:32;9.60;99.90
3980;DHT22;2004;52.452;13.120;2022-09-28T21:17:23;9.60;99.90
3980;DHT22;2004;52.452;13.120;2022-09-28T21:25:13;9.60;99.90
3980;DHT22;2004;52.452;13.120;2022-09-28T21:33:04;9.60;99.90
3980;DHT22;2004;52.452;13.120;2022-09-28T21:40:56;9.60;99.90
3980;DHT22;2004;52.452;13.120;2022-09-28T21:48:51;9.60;99.90
3980;DHT22;2004;52.452;13.120;2022-09-28T21:56:45;9.60;99.90
3980;DHT22;2004;52.452;13.120;2022-09-28T22:04:35;9.60;99.90
3980;DHT22;2004;52.452;13.120;2022-09-28T22:12:28;9.60;99.90
3980;DHT22;2004;52.452;13.120;2022-09-28T22:20:19;9.60;99.90
3980;DHT22;2004;52.452;13.120;2022-09-28T22:28:09;9.60;99.90
3980;DHT22;2004;52.452;13.120;2022-09-28T22:36:00;9.50;99.90
3980;DHT22;2004;52.452;13.120;2022-09-28T22:43:52;9.50;99.90
3980;DHT22;2004;52.452;13.120;2022-09-28T22:51:43;9.50;99.90
3980;DHT22;2004;52.452;13.120;2022-09-28T22:59:33;9.40;99.90
3980;DHT22;2004;52.452;13.120;2022-09-28T23:07:24;9.40;99.90
3980;DHT22;2004;52.452;13.120;2022-09-28T23:15:15;9.40;99.90
3980;DHT22;2004;52.452;13.120;2022-09-28T23:23:06;9.40;99.90
3980;DHT22;2004;52.452;13.120;2022-09-28T23:31:06;9.40;99.90
3980;DHT22;2004;52.452;13.120;2022-09-28T23:38:58;9.40;99.90
3980;DHT22;2004;52.452;13.120;2022-09-28T23:46:48;9.40;99.90
3980;DHT22;2004;52.452;13.120;2022-09-28T23:54:39;9.40;99.90
